Time;durP1;ratioP1;P1;durP2;ratioP2;P2;SDS_P1;SDS_P2;PMS_P1;PMS_P2;Temp;Humidity;BMP_temperature;BMP_pressure;BME280_temperature;BME280_humidity;BME280_pressure;Samples;Min_cycle;Max_cycle;Signal;HPM_P1;HPM_P2
2022/03/30 00:01:42;;;;;;;8.85;3.22;;;;;;;1.10;46.79;97705.47;5095568;28;20559;-79
2022/03/30 00:04:09;;;;;;;9.05;3.42;;;;;;;1.06;46.90;97679.31;5101025;28;20604;-79
2022/03/30 00:06:35;;;;;;;8.27;2.85;;;;;;;1.15;46.55;97695.78;5089549;28;20047;-79
2022/03/30 00:09:02;;;;;;;9.02;3.20;;;;;;;1.10;46.48;97694.69;5073743;28;20048;-80
2022/03/30 00:11:29;;;;;;;8.10;3.10;;;;;;;1.12;46.35;97699.81;5099141;28;20397;-80
2022/03/30 00:13:56;;;;;;;9.00;3.45;;;;;;;0.97;46.60;97698.69;5094669;28;20051;-80
2022/03/30 00:16:24;;;;;;;7.68;3.17;;;;;;;0.98;46.22;97702.19;5101402;28;20044;-78
2022/03/30 00:18:50;;;;;;;8.98;3.45;;;;;;;0.87;46.24;97700.53;5069150;28;20445;-79
2022/03/30 00:21:16;;;;;;;8.02;3.20;;;;;;;0.98;46.23;97711.06;5100068;28;20126;-79
2022/03/30 00:23:43;;;;;;;13.88;3.70;;;;;;;0.99;46.22;97715.38;5084015;28;20608;-79
2022/03/30 00:26:09;;;;;;;7.60;3.20;;;;;;;1.08;46.10;97720.25;5073470;28;20146;-79
2022/03/30 00:28:36;;;;;;;8.82;3.70;;;;;;;1.06;46.05;97708.94;5089884;28;20067;-79
2022/03/30 00:31:03;;;;;;;13.50;3.20;;;;;;;0.98;46.03;97708.38;5093978;28;20415;-78
2022/03/30 00:33:29;;;;;;;9.43;3.30;;;;;;;1.04;46.21;97713.78;5086709;28;20484;-79
2022/03/30 00:35:55;;;;;;;7.50;3.08;;;;;;;1.13;46.31;97718.38;5090455;28;20483;-72
2022/03/30 00:38:21;;;;;;;8.70;3.75;;;;;;;1.01;46.38;97717.00;5057445;28;20035;-75
2022/03/30 00:40:48;;;;;;;11.20;3.90;;;;;;;1.10;46.38;97713.53;5092438;28;20134;-74
2022/03/30 00:43:15;;;;;;;10.95;4.13;;;;;;;1.11;46.57;97720.53;5080027;28;20044;-72
2022/03/30 00:45:41;;;;;;;9.40;4.10;;;;;;;1.10;46.70;97724.31;5064004;28;20052;-75
2022/03/30 00:48:09;;;;;;;10.30;3.45;;;;;;;1.05;46.68;97710.00;5088124;28;20048;-74
2022/03/30 00:50:35;;;;;;;;;;;;;;;1.05;46.41;97726.16;5075957;28;20079;-74
2022/03/30 00:53:02;;;;;;;8.90;3.60;;;;;;;0.85;46.33;97725.00;5092414;28;19924;-73
2022/03/30 00:55:28;;;;;;;7.72;3.38;;;;;;;0.89;46.44;97730.69;5070457;28;20044;-73
2022/03/30 00:57:57;;;;;;;8.65;3.03;;;;;;;0.79;46.37;97708.03;5068325;28;20109;-73
2022/03/30 01:00:24;;;;;;;9.30;3.10;;;;;;;0.86;46.49;97721.25;5068453;28;20036;-73
2022/03/30 01:02:52;;;;;;;15.88;3.80;;;;;;;0.95;46.49;97735.00;5091603;28;20054;-74
2022/03/30 01:05:19;;;;;;;8.75;3.30;;;;;;;0.88;46.36;97734.44;5086662;28;20135;-73
2022/03/30 01:07:46;;;;;;;7.22;3.15;;;;;;;0.87;46.79;97740.91;5084257;28;20135;-79
2022/03/30 01:10:15;;;;;;;15.98;3.63;;;;;;;0.84;46.85;97726.06;5090564;28;20056;-79
2022/03/30 01:12:42;;;;;;;9.10;3.50;;;;;;;0.93;47.14;97737.94;5082465;28;20431;-78
2022/03/30 01:15:10;;;;;;;7.78;3.50;;;;;;;0.83;47.31;97733.31;5074199;28;20043;-78
2022/03/30 01:17:37;;;;;;;9.88;3.97;;;;;;;0.76;48.04;97743.53;5076176;28;20051;-74
2022/03/30 01:20:04;;;;;;;7.93;3.47;;;;;;;0.75;48.50;97746.47;5071993;28;20052;-73
2022/03/30 01:22:33;;;;;;;13.77;4.07;;;;;;;0.62;48.98;97748.53;5069839;28;20150;-74
2022/03/30 01:25:00;;;;;;;10.70;4.43;;;;;;;0.66;49.08;97757.72;5089769;28;20052;-73
2022/03/30 01:27:27;;;;;;;10.40;4.80;;;;;;;0.72;48.93;97742.44;5089151;28;20036;-73
2022/03/30 01:32:39;;;;;;;9.50;4.00;;;;;;;0.86;49.29;97753.53;5053114;28;20410;-73
2022/03/30 01:35:07;;;;;;;11.55;4.80;;;;;;;0.89;49.36;97760.28;5075225;28;20193;-73
2022/03/30 01:37:33;;;;;;;;;;;;;;;0.90;49.53;97768.06;5076152;28;20423;-74
2022/03/30 01:40:03;;;;;;;10.15;4.78;;;;;;;0.82;49.58;97755.94;5093278;28;20350;-73
2022/03/30 01:42:30;;;;;;;9.52;4.45;;;;;;;0.91;49.43;97756.25;5070451;28;20090;-73
2022/03/30 01:44:56;;;;;;;12.23;4.75;;;;;;;0.86;49.56;97756.22;5093718;28;20051;-73
2022/03/30 01:47:23;;;;;;;10.45;4.50;;;;;;;0.77;49.59;97737.06;5093800;28;20055;-73
2022/03/30 01:49:49;;;;;;;10.73;4.82;;;;;;;0.85;49.99;97759.97;5074317;28;20036;-74
2022/03/30 01:52:16;;;;;;;10.50;4.68;;;;;;;0.76;50.18;97777.69;5064920;28;20135;-73
2022/03/30 01:54:45;;;;;;;11.07;4.80;;;;;;;0.63;50.39;97768.19;5093611;28;20054;-73
2022/03/30 01:57:12;;;;;;;9.30;4.55;;;;;;;0.54;51.05;97776.72;5092972;28;20508;-73
2022/03/30 01:59:39;;;;;;;11.13;5.07;;;;;;;0.46;51.12;97754.88;5085272;28;20065;-73
2022/03/30 02:02:07;;;;;;;10.02;4.45;;;;;;;0.55;50.54;97770.31;5057068;28;20517;-74
2022/03/30 02:04:35;;;;;;;9.95;4.22;;;;;;;0.35;51.05;97764.78;5094643;28;20089;-73
2022/03/30 02:07:02;;;;;;;9.63;4.65;;;;;;;0.40;51.13;97779.06;5075190;28;20052;-73
2022/03/30 02:09:28;;;;;;;9.88;4.50;;;;;;;0.29;51.43;97774.69;5059645;28;20036;-73
2022/03/30 02:11:56;;;;;;;10.73;4.90;;;;;;;0.40;51.34;97779.06;5093361;28;20048;-75
2022/03/30 02:14:22;;;;;;;11.68;5.03;;;;;;;0.44;50.85;97783.94;5075579;28;20083;-75
2022/03/30 02:16:49;;;;;;;9.80;4.50;;;;;;;0.41;51.05;97788.75;5091694;28;20224;-75
2022/03/30 02:19:16;;;;;;;11.68;4.95;;;;;;;0.40;51.04;97792.50;5073713;28;20067;-74
2022/03/30 02:21:42;;;;;;;12.00;4.68;;;;;;;0.32;51.24;97784.13;5091815;28;20048;-74
2022/03/30 02:24:09;;;;;;;10.00;4.38;;;;;;;0.28;51.36;97781.13;5104277;28;20531;-74
2022/03/30 02:26:35;;;;;;;11.88;5.00;;;;;;;0.33;51.01;97802.69;5098034;28;20048;-74
2022/03/30 02:29:02;;;;;;;12.30;4.03;;;;;;;0.21;51.07;97794.78;5067820;28;20043;-74
2022/03/30 02:31:29;;;;;;;10.15;4.22;;;;;;;0.23;50.60;97794.53;5088869;28;20044;-74
2022/03/30 02:33:55;;;;;;;9.80;3.50;;;;;;;0.27;50.41;97801.00;5080684;28;20044;-73
2022/03/30 02:36:21;;;;;;;9.68;3.70;;;;;;;0.22;49.96;97814.41;5079902;28;20031;-74
2022/03/30 02:38:48;;;;;;;8.48;3.30;;;;;;;0.33;49.65;97808.06;5094953;28;20543;-74
2022/03/30 02:41:14;;;;;;;8.45;3.40;;;;;;;0.27;49.41;97811.75;5068535;28;20048;-74
2022/03/30 02:43:40;;;;;;;7.75;3.17;;;;;;;0.23;49.74;97826.78;5084657;28;20048;-74
2022/03/30 02:46:07;;;;;;;9.63;3.55;;;;;;;0.11;49.54;97824.28;5092571;28;20137;-73
2022/03/30 02:48:35;;;;;;;7.68;3.08;;;;;;;0.25;49.16;97825.47;5073815;28;20494;-74
2022/03/30 02:51:03;;;;;;;11.13;3.25;;;;;;;0.28;49.18;97837.56;5074859;28;20064;-74
2022/03/30 02:53:29;;;;;;;10.23;3.17;;;;;;;0.11;49.41;97838.50;5057854;28;20044;-74
2022/03/30 02:55:56;;;;;;;9.48;3.05;;;;;;;0.09;49.45;97837.16;5088561;28;20083;-72
2022/03/30 02:58:23;;;;;;;9.77;3.00;;;;;;;0.06;49.82;97848.38;5077531;28;20058;-73
2022/03/30 03:00:49;;;;;;;9.45;3.67;;;;;;;0.18;49.76;97853.63;5095296;28;20070;-74
2022/03/30 03:03:16;;;;;;;9.05;3.53;;;;;;;0.10;49.95;97854.91;5098338;28;20056;-73
2022/03/30 03:05:43;;;;;;;13.05;4.20;;;;;;;-0.15;51.03;97861.63;5094354;28;20040;-74
2022/03/30 03:08:11;;;;;;;10.35;3.95;;;;;;;-0.10;50.80;97863.56;5100733;28;20044;-73
2022/03/30 03:10:39;;;;;;;10.57;3.83;;;;;;;-0.01;50.89;97870.91;5064936;28;20052;-74
2022/03/30 03:13:06;;;;;;;10.37;3.57;;;;;;;0.01;50.88;97872.53;5087988;28;20064;-75
2022/03/30 03:15:33;;;;;;;7.88;3.13;;;;;;;-0.06;51.14;97875.41;5102106;28;20047;-74
2022/03/30 03:18:01;;;;;;;7.82;3.13;;;;;;;-0.04;50.77;97884.88;5073744;28;20078;-73
2022/03/30 03:20:28;;;;;;;8.63;2.97;;;;;;;-0.02;50.08;97876.53;5074214;28;20055;-74
2022/03/30 03:22:55;;;;;;;12.73;2.95;;;;;;;0.02;49.95;97872.28;5071427;28;20090;-72
2022/03/30 03:25:22;;;;;;;8.15;2.90;;;;;;;0.02;49.38;97888.41;5107266;28;20154;-73
2022/03/30 03:27:48;;;;;;;7.80;2.60;;;;;;;0.01;49.02;97886.81;5072555;28;20075;-73
2022/03/30 03:30:15;;;;;;;9.32;2.95;;;;;;;0.10;48.94;97892.53;5085366;28;20721;-73
2022/03/30 03:32:42;;;;;;;7.40;2.75;;;;;;;-0.02;48.98;97892.66;5087961;28;20064;-73
2022/03/30 03:35:09;;;;;;;7.83;2.90;;;;;;;-0.10;49.00;97896.59;5079435;28;20143;-75
2022/03/30 03:37:36;;;;;;;14.90;6.47;;;;;;;-0.04;48.93;97903.66;5060120;28;20725;-73
2022/03/30 03:40:03;;;;;;;13.82;5.88;;;;;;;-0.02;48.78;97906.09;5094549;28;20109;-72
2022/03/30 03:42:29;;;;;;;36.53;15.75;;;;;;;0.05;48.70;97911.28;5090054;28;20047;-73
2022/03/30 03:44:56;;;;;;;20.33;9.60;;;;;;;0.07;48.35;97906.44;5095360;28;20069;-76
2022/03/30 03:47:22;;;;;;;17.33;6.95;;;;;;;0.11;48.29;97927.19;5080919;28;20073;-77
2022/03/30 03:49:48;;;;;;;11.85;4.50;;;;;;;0.09;48.09;97923.16;5050158;28;20675;-78
2022/03/30 03:52:14;;;;;;;13.73;3.80;;;;;;;0.01;48.12;97899.41;5071464;28;20173;-76
2022/03/30 03:54:42;;;;;;;10.65;3.08;;;;;;;-0.07;47.64;97922.16;5099249;28;20136;-76
2022/03/30 03:57:08;;;;;;;7.93;2.90;;;;;;;-0.10;47.44;97920.78;5091534;28;20475;-75
2022/03/30 03:59:35;;;;;;;8.50;3.00;;;;;;;-0.05;47.20;97939.66;5070790;28;20121;-75
2022/03/30 04:02:04;;;;;;;11.60;2.88;;;;;;;-0.04;47.04;97929.72;5074095;28;20256;-75
2022/03/30 04:04:30;;;;;;;11.02;3.00;;;;;;;0.02;46.82;97936.78;5081298;28;20138;-75
2022/03/30 04:06:56;;;;;;;8.50;2.70;;;;;;;0.02;46.59;97939.47;5080959;28;20052;-76
2022/03/30 04:09:23;;;;;;;7.45;2.65;;;;;;;-0.08;46.38;97944.72;5087282;28;20118;-77
2022/03/30 04:11:51;;;;;;;11.25;2.78;;;;;;;0.01;46.13;97942.41;5080787;28;20052;-76
2022/03/30 04:14:17;;;;;;;9.88;3.17;;;;;;;0.01;45.78;97956.66;5093654;28;20078;-75
2022/03/30 04:16:44;;;;;;;10.23;2.75;;;;;;;0.05;45.63;97955.09;5063717;28;20046;-76
2022/03/30 04:19:10;;;;;;;9.10;3.08;;;;;;;-0.08;46.04;97945.56;5087920;28;20048;-76
2022/03/30 04:21:36;;;;;;;7.30;2.40;;;;;;;0.02;45.34;97936.78;5090941;28;20048;-75
2022/03/30 04:24:03;;;;;;;9.20;2.65;;;;;;;0.19;45.35;97960.88;5083613;28;20097;-76
2022/03/30 04:26:29;;;;;;;7.75;2.85;;;;;;;0.24;44.90;97960.13;5072945;28;20048;-76
2022/03/30 04:28:56;;;;;;;10.93;3.00;;;;;;;0.21;44.78;97960.66;5066081;28;20056;-78
2022/03/30 04:31:23;;;;;;;7.32;2.70;;;;;;;0.19;44.89;97965.47;5079776;28;20040;-76
2022/03/30 04:33:49;;;;;;;6.95;2.70;;;;;;;0.24;44.85;97971.72;5097383;28;20063;-74
2022/03/30 04:36:15;;;;;;;30.02;13.27;;;;;;;0.22;44.93;97971.13;5067852;28;20084;-75
2022/03/30 04:38:41;;;;;;;23.63;10.27;;;;;;;0.26;45.08;97976.81;5093556;28;20439;-77
2022/03/30 04:41:07;;;;;;;12.38;5.18;;;;;;;0.33;44.62;97980.16;5077219;28;20044;-76
2022/03/30 04:43:34;;;;;;;10.50;4.35;;;;;;;0.27;44.98;97979.28;5083311;28;20044;-77
2022/03/30 04:46:01;;;;;;;8.18;3.35;;;;;;;0.19;45.17;97981.59;5075008;28;20110;-77
2022/03/30 04:48:27;;;;;;;9.27;3.40;;;;;;;0.33;44.91;97985.53;5096662;28;20070;-77
2022/03/30 04:50:53;;;;;;;7.95;3.33;;;;;;;0.21;45.12;97987.53;5090156;28;20423;-77
2022/03/30 04:53:20;;;;;;;8.50;3.20;;;;;;;0.33;44.86;97996.28;5055173;28;20140;-77
2022/03/30 04:55:46;;;;;;;10.70;2.78;;;;;;;0.39;44.87;97997.94;5085092;28;20074;-77
2022/03/30 04:58:12;;;;;;;7.45;3.08;;;;;;;0.31;45.07;97994.91;5098323;28;20077;-76
2022/03/30 05:00:40;;;;;;;10.30;2.95;;;;;;;0.42;45.08;97999.31;5076411;28;20052;-76
2022/03/30 05:03:08;;;;;;;16.42;3.33;;;;;;;0.30;45.07;97983.31;5061915;28;20093;-77
2022/03/30 05:05:34;;;;;;;10.02;3.05;;;;;;;0.45;45.01;98012.25;5065476;28;20523;-76
2022/03/30 05:08:00;;;;;;;6.07;2.63;;;;;;;0.46;45.05;98002.31;5099389;28;20050;-76
2022/03/30 05:10:27;;;;;;;6.05;2.40;;;;;;;0.28;44.97;98005.09;5059440;28;20143;-77
2022/03/30 05:12:54;;;;;;;7.40;2.60;;;;;;;0.35;45.38;98012.13;5073181;28;20044;-75
2022/03/30 05:15:23;;;;;;;8.68;2.53;;;;;;;0.41;45.07;98024.59;5061317;28;20422;-76
2022/03/30 05:17:49;;;;;;;7.65;2.53;;;;;;;0.45;45.23;98022.19;5046518;28;20499;-76
2022/03/30 05:20:17;;;;;;;17.35;6.65;;;;;;;0.45;45.42;98012.25;5079346;28;20048;-76
2022/03/30 05:22:43;;;;;;;;;;;;;;;0.53;45.46;98038.69;5054936;28;20033;-76
2022/03/30 05:25:12;;;;;;;18.65;6.43;;;;;;;0.71;44.98;98031.38;5098016;28;20357;-77
2022/03/30 05:27:38;;;;;;;11.95;4.32;;;;;;;0.83;45.09;98032.00;5080222;28;20422;-76
2022/03/30 05:30:06;;;;;;;10.68;3.15;;;;;;;0.92;44.83;98039.63;5090109;28;20191;-76
2022/03/30 05:32:32;;;;;;;7.93;2.90;;;;;;;0.89;44.81;98042.84;5065005;28;20497;-75
2022/03/30 05:35:05;;;;;;;12.10;3.38;;;;;;;0.95;44.59;98042.66;5068458;28;20044;-78
2022/03/30 05:37:32;;;;;;;8.07;2.95;;;;;;;0.99;44.78;98049.13;5069554;28;20043;-79
2022/03/30 05:39:58;;;;;;;8.98;3.00;;;;;;;1.01;44.82;98050.75;5104160;28;20040;-79
2022/03/30 05:42:25;;;;;;;9.23;3.25;;;;;;;1.06;44.59;98054.31;5036983;28;20040;-75
2022/03/30 05:44:52;;;;;;;11.02;3.53;;;;;;;1.14;44.55;98047.66;5071993;28;20497;-75
2022/03/30 05:47:18;;;;;;;11.07;3.83;;;;;;;1.10;44.29;98054.63;5078961;28;20093;-75
2022/03/30 05:49:45;;;;;;;11.40;4.43;;;;;;;1.07;44.41;98058.63;5054129;28;20044;-75
2022/03/30 05:52:11;;;;;;;9.18;3.83;;;;;;;1.06;44.52;98048.09;5069871;28;20048;-75
2022/03/30 05:54:38;;;;;;;12.48;3.67;;;;;;;1.21;44.13;98067.09;5071785;28;20097;-75
2022/03/30 05:57:05;;;;;;;10.07;3.53;;;;;;;1.24;43.99;98073.84;5089433;28;20549;-75
2022/03/30 05:59:34;;;;;;;11.07;3.67;;;;;;;1.25;43.72;98064.69;5072494;28;20048;-74
2022/03/30 06:02:01;;;;;;;9.80;3.60;;;;;;;1.29;43.89;98073.09;5057852;28;20094;-71
2022/03/30 06:04:28;;;;;;;8.63;3.42;;;;;;;1.34;43.42;98057.78;5098099;28;20071;-69
2022/03/30 06:06:55;;;;;;;8.68;3.10;;;;;;;1.45;43.25;98065.94;5101039;28;20518;-70
2022/03/30 06:09:22;;;;;;;9.77;3.40;;;;;;;1.46;42.75;98075.63;5060783;28;20526;-71
2022/03/30 06:11:48;;;;;;;8.35;2.75;;;;;;;1.49;42.82;98073.25;5089324;28;20039;-71
2022/03/30 06:14:15;;;;;;;7.73;3.10;;;;;;;1.63;42.19;98080.91;5087035;28;20059;-68
2022/03/30 06:16:42;;;;;;;13.90;2.90;;;;;;;1.55;42.63;98074.91;5054296;28;20309;-69
2022/03/30 06:19:09;;;;;;;12.45;2.95;;;;;;;1.63;42.52;98084.38;5071758;28;20134;-72
2022/03/30 06:21:36;;;;;;;8.43;2.85;;;;;;;1.72;42.49;98073.16;5092010;28;20078;-70
2022/03/30 06:24:03;;;;;;;9.63;3.00;;;;;;;1.84;41.92;98079.97;5076318;28;20548;-70
2022/03/30 06:26:30;;;;;;;7.65;2.88;;;;;;;1.88;41.87;98088.34;5063335;28;20101;-73
2022/03/30 06:29:00;;;;;;;8.63;3.40;;;;;;;1.99;41.69;98094.59;5091183;28;20105;-74
2022/03/30 06:31:26;;;;;;;25.45;11.30;;;;;;;2.01;41.50;98097.84;5069353;28;20048;-74
2022/03/30 06:33:52;;;;;;;19.67;9.60;;;;;;;2.02;41.51;98088.69;5074265;28;20093;-74
2022/03/30 06:36:18;;;;;;;15.05;5.80;;;;;;;2.13;41.46;98100.38;5090006;28;20484;-74
2022/03/30 06:38:44;;;;;;;8.07;3.33;;;;;;;2.12;41.34;98085.25;5053894;28;20101;-74
2022/03/30 06:41:12;;;;;;;13.18;4.00;;;;;;;2.21;40.83;98112.56;5067141;28;20575;-73
2022/03/30 06:43:42;;;;;;;11.35;4.25;;;;;;;2.23;40.96;98103.09;5073723;28;20134;-73
2022/03/30 06:46:09;;;;;;;8.93;3.58;;;;;;;2.31;40.78;98109.88;5066146;28;20062;-73
2022/03/30 06:48:36;;;;;;;13.13;3.55;;;;;;;2.30;40.77;98123.66;5057833;28;20146;-73
2022/03/30 06:51:03;;;;;;;9.10;2.80;;;;;;;2.32;40.56;98122.31;5056917;28;20135;-74
2022/03/30 06:53:29;;;;;;;8.70;3.20;;;;;;;2.40;40.44;98123.69;5073789;28;20054;-74
2022/03/30 06:55:56;;;;;;;9.10;3.40;;;;;;;2.41;40.27;98119.91;5055914;28;20051;-76
2022/03/30 06:58:23;;;;;;;9.45;2.80;;;;;;;2.31;39.66;98126.06;5091874;28;20776;-73
2022/03/30 07:00:49;;;;;;;13.95;3.00;;;;;;;2.38;39.21;98123.16;5091648;28;20047;-75
2022/03/30 07:03:16;;;;;;;8.02;2.92;;;;;;;2.41;39.21;98134.22;5072298;28;20044;-73
2022/03/30 07:05:42;;;;;;;7.95;2.53;;;;;;;2.32;39.11;98143.09;5089258;28;20109;-75
2022/03/30 07:10:53;;;;;;;7.28;2.92;;;;;;;2.21;38.54;98147.59;5091472;28;20047;-74
2022/03/30 07:13:22;;;;;;;6.35;2.35;;;;;;;2.10;38.95;98160.19;5091671;28;20499;-73
2022/03/30 07:15:48;;;;;;;7.22;2.58;;;;;;;2.28;38.38;98153.56;5084789;28;20052;-75
2022/03/30 07:18:15;;;;;;;9.50;2.42;;;;;;;2.17;38.50;98154.56;5078459;28;20062;-73
2022/03/30 07:20:42;;;;;;;8.57;2.53;;;;;;;2.27;38.46;98149.25;5084691;28;20073;-69
2022/03/30 07:23:10;;;;;;;7.90;2.92;;;;;;;2.30;38.50;98162.22;5072544;28;20056;-74
2022/03/30 07:25:37;;;;;;;;;;;;;;;2.40;38.10;98159.59;5073019;28;20525;-74
2022/03/30 07:28:04;;;;;;;7.45;2.78;;;;;;;2.46;38.03;98152.34;5073140;28;19924;-69
2022/03/30 07:30:31;;;;;;;16.08;5.30;;;;;;;2.64;37.92;98155.66;5069351;28;20064;-68
2022/03/30 07:32:58;;;;;;;9.85;3.30;;;;;;;2.80;37.94;98157.34;5090932;28;20507;-69
2022/03/30 07:35:32;;;;;;;10.25;3.30;;;;;;;2.91;37.86;98152.78;5066381;28;20109;-72
2022/03/30 07:38:00;;;;;;;8.50;3.00;;;;;;;3.05;37.73;98165.81;5092032;28;20071;-73
2022/03/30 07:40:29;;;;;;;;;;;;;;;3.21;37.33;98163.97;5070667;28;20097;-72
2022/03/30 07:42:56;;;;;;;6.15;2.53;;;;;;;3.23;36.95;98170.72;5051124;28;19975;-73
2022/03/30 07:45:23;;;;;;;8.45;2.95;;;;;;;3.25;37.12;98160.44;5090210;28;20397;-74
2022/03/30 07:47:49;;;;;;;7.55;2.83;;;;;;;3.06;37.06;98180.94;5095692;28;20127;-74
2022/03/30 07:50:16;;;;;;;6.90;2.83;;;;;;;2.91;37.16;98179.78;5077931;28;20479;-74
2022/03/30 07:52:42;;;;;;;10.73;3.00;;;;;;;3.02;36.93;98179.84;5082678;28;20051;-77
2022/03/30 07:55:11;;;;;;;7.10;2.10;;;;;;;2.87;36.94;98185.97;5060656;28;20048;-75
2022/03/30 07:57:39;;;;;;;6.32;2.72;;;;;;;2.71;37.02;98180.50;5093916;28;20052;-75
2022/03/30 08:00:09;;;;;;;10.73;3.42;;;;;;;2.72;36.79;98184.81;5090809;28;20049;-74
2022/03/30 08:02:36;;;;;;;11.23;3.05;;;;;;;2.68;36.74;98176.47;5089458;28;20055;-74
2022/03/30 08:05:02;;;;;;;8.32;2.70;;;;;;;2.78;36.57;98191.91;5099254;28;20511;-74
2022/03/30 08:07:30;;;;;;;6.53;2.45;;;;;;;2.93;36.53;98187.63;5094803;28;20036;-73
2022/03/30 08:09:56;;;;;;;5.63;2.00;;;;;;;2.91;36.08;98193.28;5081830;28;20550;-71
2022/03/30 08:12:25;;;;;;;8.77;2.10;;;;;;;3.07;35.79;98193.34;5086676;28;20047;-72
2022/03/30 08:14:51;;;;;;;6.63;2.00;;;;;;;3.15;35.63;98195.56;5095763;28;20055;-73
2022/03/30 08:17:17;;;;;;;6.80;2.10;;;;;;;3.06;35.63;98167.41;5060140;28;20047;-74
2022/03/30 08:19:44;;;;;;;7.18;2.30;;;;;;;3.45;35.44;98198.59;5105849;28;20044;-74
2022/03/30 08:22:26;;;;;;;6.68;2.08;;;;;;;3.58;35.15;98189.16;5095420;28;20048;-72
2022/03/30 08:24:52;;;;;;;8.38;2.17;;;;;;;3.37;35.12;98187.25;5071647;28;20052;-74
2022/03/30 08:27:21;;;;;;;8.80;3.15;;;;;;;3.35;35.01;98204.78;5086835;28;20047;-74
2022/03/30 08:29:49;;;;;;;6.88;2.22;;;;;;;3.31;34.85;98201.00;5083302;28;20062;-74
2022/03/30 08:32:17;;;;;;;7.00;2.40;;;;;;;3.31;34.68;98204.50;5092535;28;20060;-74
2022/03/30 08:34:43;;;;;;;;;;;;;;;3.61;34.73;98191.34;5104383;28;20047;-74
2022/03/30 08:37:11;;;;;;;5.53;2.20;;;;;;;3.81;34.59;98207.56;5098738;28;19923;-73
2022/03/30 08:39:37;;;;;;;10.93;2.20;;;;;;;4.12;33.91;98204.03;5086231;28;20074;-74
2022/03/30 08:42:05;;;;;;;8.45;2.30;;;;;;;4.27;33.96;98200.53;5058652;28;20459;-71
2022/03/30 08:44:32;;;;;;;6.18;1.95;;;;;;;4.29;33.36;98206.47;5083767;28;20047;-72
2022/03/30 08:46:59;;;;;;;5.70;1.88;;;;;;;3.73;33.25;98207.28;5100743;28;20436;-72
2022/03/30 08:49:27;;;;;;;9.93;1.95;;;;;;;3.77;33.50;98206.50;5098186;28;20167;-74
2022/03/30 08:51:57;;;;;;;6.10;1.90;;;;;;;3.74;33.70;98215.13;5076975;28;20048;-72
2022/03/30 08:54:24;;;;;;;8.73;2.33;;;;;;;3.64;33.91;98210.50;5103235;28;20075;-72
2022/03/30 08:56:50;;;;;;;5.57;2.00;;;;;;;3.64;33.91;98202.41;5090643;28;20101;-72
2022/03/30 08:59:19;;;;;;;5.88;2.03;;;;;;;3.65;34.10;98208.63;5075494;28;20109;-72
2022/03/30 09:01:45;;;;;;;10.80;2.13;;;;;;;3.60;34.19;98208.63;5080217;28;20035;-72
2022/03/30 09:04:14;;;;;;;6.93;2.13;;;;;;;3.57;33.95;98217.25;5082323;28;20039;-72
2022/03/30 09:06:44;;;;;;;6.03;2.30;;;;;;;3.40;34.09;98204.78;5078476;28;20070;-71
2022/03/30 09:09:11;;;;;;;5.55;2.00;;;;;;;3.40;33.73;98208.31;5094123;28;20422;-72
2022/03/30 09:11:45;;;;;;;5.65;2.00;;;;;;;3.42;33.75;98213.44;5076956;28;20044;-72
2022/03/30 09:14:15;;;;;;;5.68;2.03;;;;;;;3.37;33.42;98208.84;5102809;28;20043;-71
2022/03/30 09:16:43;;;;;;;5.82;2.20;;;;;;;3.40;33.89;98207.50;5092764;28;20112;-71
2022/03/30 09:19:11;;;;;;;3.55;1.70;;;;;;;3.46;33.83;98217.25;5074069;28;20044;-70
2022/03/30 09:21:44;;;;;;;;;;;;;;;3.62;33.07;98201.88;5090402;28;20075;-71
2022/03/30 09:24:11;;;;;;;8.60;2.22;;;;;;;3.78;32.99;98218.94;5054790;28;19924;-75
2022/03/30 09:26:38;;;;;;;4.72;1.90;;;;;;;3.68;33.00;98216.19;5053115;28;20052;-72
2022/03/30 09:29:07;;;;;;;10.02;2.50;;;;;;;3.59;33.13;98218.63;5035522;28;20139;-74
2022/03/30 09:31:35;;;;;;;5.90;2.00;;;;;;;3.77;33.17;98220.00;5051493;28;20043;-75
2022/03/30 09:34:02;;;;;;;9.07;2.35;;;;;;;4.09;32.86;98210.81;5072095;28;20060;-73
2022/03/30 09:36:28;;;;;;;9.30;2.25;;;;;;;4.64;32.74;98220.22;5088716;28;20055;-76
2022/03/30 09:38:55;;;;;;;8.30;3.00;;;;;;;4.97;32.51;98228.81;5089888;28;20126;-74
2022/03/30 09:41:21;;;;;;;7.85;2.17;;;;;;;5.05;31.63;98213.88;5090261;28;20048;-72
2022/03/30 09:43:48;;;;;;;5.38;1.80;;;;;;;5.30;31.44;98220.25;5088749;28;20066;-73
2022/03/30 09:46:15;;;;;;;4.07;1.67;;;;;;;5.20;30.93;98229.25;5085732;28;20052;-73
2022/03/30 09:48:49;;;;;;;4.43;1.70;;;;;;;4.49;30.74;98242.72;5070772;28;20135;-68
2022/03/30 09:51:16;;;;;;;8.23;1.98;;;;;;;3.78;31.66;98227.03;5069555;28;20056;-69
2022/03/30 09:53:43;;;;;;;3.97;1.67;;;;;;;3.88;32.09;98215.41;5092489;28;20046;-72
2022/03/30 09:56:15;;;;;;;4.50;1.73;;;;;;;3.71;32.31;98196.72;5093574;28;20101;-71
2022/03/30 09:58:43;;;;;;;6.28;2.28;;;;;;;3.85;32.79;98212.44;5070636;28;20101;-70
2022/03/30 10:01:16;;;;;;;5.72;1.77;;;;;;;3.99;32.60;98216.22;5092791;28;20075;-70
2022/03/30 10:03:46;;;;;;;7.82;2.10;;;;;;;4.01;32.36;98219.47;5087720;28;20094;-69
2022/03/30 10:06:15;;;;;;;7.68;2.33;;;;;;;4.07;32.49;98209.47;5093856;28;20508;-69
2022/03/30 10:08:42;;;;;;;4.60;1.80;;;;;;;4.12;31.95;98233.81;5034686;28;20426;-69
2022/03/30 10:11:10;;;;;;;;;;;;;;;4.03;32.12;98217.31;5032538;28;20057;-81
2022/03/30 10:13:38;;;;;;;5.82;2.00;;;;;;;3.88;32.51;98225.41;5010219;28;20309;-72
2022/03/30 10:16:06;;;;;;;6.55;2.40;;;;;;;3.79;32.53;98220.56;5030386;28;20499;-72
2022/03/30 10:18:32;;;;;;;;;;;;;;;3.64;32.90;98221.31;5012961;28;20044;-72
2022/03/30 10:21:19;;;;;;;15.70;2.00;;;;;;;3.74;32.05;98219.72;5028491;28;19925;-74
2022/03/30 10:24:08;;;;;;;3.22;1.60;;;;;;;3.80;32.26;98215.94;5004551;28;20229;-73
2022/03/30 10:26:46;;;;;;;6.45;1.80;;;;;;;4.01;31.97;98216.75;5030747;28;20552;-74
2022/03/30 10:29:17;;;;;;;9.73;2.15;;;;;;;3.94;31.48;98218.94;5016175;28;20041;-74
2022/03/30 10:32:09;;;;;;;4.22;1.90;;;;;;;3.92;31.46;98211.09;5015092;28;20042;-71
2022/03/30 10:34:41;;;;;;;6.82;1.90;;;;;;;4.03;31.50;98224.63;5028453;28;20100;-72
2022/03/30 10:37:10;;;;;;;7.63;2.30;;;;;;;3.98;31.55;98217.31;5028851;28;20045;-72
2022/03/30 10:39:53;;;;;;;5.88;1.90;;;;;;;4.35;31.23;98218.91;5017608;28;20057;-71
2022/03/30 10:42:20;;;;;;;7.72;2.22;;;;;;;4.65;30.97;98221.84;5024732;28;20045;-72
2022/03/30 10:44:49;;;;;;;7.35;2.30;;;;;;;4.75;31.14;98226.44;5030797;28;20481;-72
2022/03/30 10:47:17;;;;;;;5.40;2.10;;;;;;;4.97;30.95;98218.75;5009409;28;20053;-71
2022/03/30 10:49:46;;;;;;;4.90;1.90;;;;;;;5.29;30.30;98218.63;5031407;28;20038;-73
2022/03/30 10:52:37;;;;;;;8.27;1.95;;;;;;;5.67;30.01;98225.19;5029691;28;20044;-70
2022/03/30 10:55:36;;;;;;;7.07;1.90;;;;;;;5.95;29.69;98217.41;5021437;28;20539;-72
2022/03/30 10:58:05;;;;;;;9.18;1.90;;;;;;;6.06;29.50;98220.09;5030171;28;20053;-72
2022/03/30 11:00:34;;;;;;;6.60;1.90;;;;;;;6.19;29.06;98213.19;5039472;28;20494;-73
2022/03/30 11:03:11;;;;;;;5.57;1.73;;;;;;;5.84;28.63;98226.72;5025294;28;20046;-72
2022/03/30 11:05:39;;;;;;;8.65;1.88;;;;;;;5.91;28.35;98210.13;5022130;28;20517;-70
2022/03/30 11:08:26;;;;;;;4.90;1.60;;;;;;;6.26;27.22;98229.16;5013932;28;20567;-73
2022/03/30 11:10:54;;;;;;;7.90;1.60;;;;;;;6.47;26.58;98214.28;5030800;28;20132;-72
2022/03/30 11:13:25;;;;;;;5.38;1.50;;;;;;;6.54;26.13;98235.69;5013558;28;20045;-72
2022/03/30 11:16:11;;;;;;;4.10;1.45;;;;;;;6.13;25.86;98238.78;5008342;28;20046;-71
2022/03/30 11:18:56;;;;;;;3.03;1.38;;;;;;;6.18;25.99;98222.44;5028008;28;20510;-72
2022/03/30 11:21:23;;;;;;;5.57;1.50;;;;;;;6.07;26.78;98213.56;4997224;28;20502;-74
2022/03/30 11:24:18;;;;;;;5.40;1.30;;;;;;;6.63;26.68;98225.00;5030041;28;20046;-74
2022/03/30 11:27:21;;;;;;;4.85;1.60;;;;;;;7.38;26.48;98212.72;5031160;28;20123;-74
2022/03/30 11:30:09;;;;;;;5.38;1.90;;;;;;;8.09;26.07;98208.44;5031864;28;20420;-72
2022/03/30 11:33:06;;;;;;;6.78;2.00;;;;;;;8.58;25.78;98214.41;5028807;28;20049;-71
2022/03/30 11:35:39;;;;;;;5.72;1.80;;;;;;;9.03;25.19;98216.59;5047118;28;20057;-73
2022/03/30 11:38:11;;;;;;;6.20;2.00;;;;;;;9.43;24.99;98212.50;5014163;28;20049;-74
2022/03/30 11:40:40;;;;;;;3.55;1.70;;;;;;;9.77;24.79;98217.47;5029757;28;20509;-72
2022/03/30 11:43:08;;;;;;;5.35;1.98;;;;;;;10.05;24.88;98190.06;5012200;28;20057;-74
2022/03/30 11:45:36;;;;;;;7.95;2.08;;;;;;;10.51;24.65;98217.38;5014021;28;20048;-72
2022/03/30 11:48:10;;;;;;;5.55;2.00;;;;;;;10.86;24.31;98223.00;5013934;28;20049;-74
2022/03/30 11:50:38;;;;;;;8.13;1.95;;;;;;;11.06;23.49;98220.81;5029725;28;20598;-72
2022/03/30 11:53:07;;;;;;;4.07;1.52;;;;;;;11.22;22.86;98202.06;5030512;28;20144;-72